createdAt,value
2022-08-17T00:02:26.768Z,7.25
2022-08-17T00:04:54.719Z,6.07
2022-08-17T00:07:21.604Z,8.63
2022-08-17T00:09:48.380Z,6.75
2022-08-17T00:12:42.054Z,7.82
2022-08-17T00:15:02.710Z,7.40
2022-08-17T00:17:29.466Z,6.53
2022-08-17T00:19:56.218Z,6.55
2022-08-17T00:22:31.502Z,5.45
2022-08-17T00:25:07.574Z,6.75
2022-08-17T00:27:35.065Z,8.32
2022-08-17T00:30:01.926Z,9.27
2022-08-17T00:33:13.795Z,6.63
2022-08-17T00:35:17.663Z,5.28
2022-08-17T00:37:44.410Z,7.63
2022-08-17T00:40:14.251Z,6.47
2022-08-17T00:42:42.594Z,6.30
2022-08-17T00:45:12.248Z,6.35
2022-08-17T00:47:39.340Z,5.75
2022-08-17T00:50:09.831Z,7.00
2022-08-17T00:52:41.638Z,5.72
2022-08-17T00:55:10.240Z,7.45
2022-08-17T00:57:41.807Z,7.03
2022-08-17T01:00:21.289Z,7.35
2022-08-17T01:02:48.912Z,7.50
2022-08-17T01:05:19.914Z,7.88
2022-08-17T01:07:50.737Z,8.90
2022-08-17T01:10:59.497Z,7.07
2022-08-17T01:13:11.181Z,7.63
2022-08-17T01:15:53.381Z,6.95
2022-08-17T01:18:20.230Z,5.75
2022-08-17T01:20:53.976Z,9.77
2022-08-17T01:23:23.511Z,6.75
2022-08-17T01:25:53.272Z,5.93
2022-08-17T01:28:33.452Z,8.13
2022-08-17T01:31:09.609Z,6.75
2022-08-17T01:33:36.716Z,6.63
2022-08-17T01:36:07.015Z,7.88
2022-08-17T01:38:38.244Z,6.25
2022-08-17T01:41:12.438Z,6.82
2022-08-17T01:43:47.390Z,6.82
2022-08-17T01:46:27.171Z,7.47
2022-08-17T01:48:54.547Z,7.03
2022-08-17T01:51:22.158Z,7.43
2022-08-17T01:53:53.951Z,5.82
2022-08-17T01:56:24.108Z,5.55
2022-08-17T01:58:51.236Z,7.40
2022-08-17T02:01:24.580Z,6.63
2022-08-17T02:03:59.263Z,7.13
2022-08-17T02:06:31.450Z,8.45
2022-08-17T02:09:16.603Z,7.95
2022-08-17T02:11:44.616Z,7.95
2022-08-17T02:14:13.260Z,4.85
2022-08-17T02:16:42.027Z,9.43
2022-08-17T02:19:12.286Z,6.07
2022-08-17T02:21:40.340Z,6.28
2022-08-17T02:24:10.921Z,7.25
2022-08-17T02:26:37.814Z,6.45
2022-08-17T02:29:04.696Z,6.35
2022-08-17T02:31:31.487Z,5.90
2022-08-17T02:34:04.185Z,6.60
2022-08-17T02:36:32.991Z,5.97
2022-08-17T02:39:01.466Z,5.53
2022-08-17T02:41:28.405Z,4.80
2022-08-17T02:43:55.138Z,5.00
2022-08-17T02:46:22.519Z,6.30
2022-08-17T02:48:49.343Z,6.70
2022-08-17T02:51:16.802Z,5.45
2022-08-17T02:53:43.623Z,4.57
2022-08-17T02:56:10.367Z,5.20
2022-08-17T02:58:37.074Z,6.38
2022-08-17T03:01:09.629Z,5.40
2022-08-17T03:03:37.486Z,5.40
2022-08-17T03:06:05.516Z,4.70
2022-08-17T03:08:32.257Z,5.18
2022-08-17T03:10:59.046Z,4.95
2022-08-17T03:13:27.194Z,6.85
2022-08-17T03:15:54.041Z,6.47
2022-08-17T03:18:24.881Z,7.70
2022-08-17T03:21:00.990Z,5.72
2022-08-17T03:23:29.742Z,6.30
2022-08-17T03:25:57.985Z,6.00
2022-08-17T03:28:25.655Z,4.65
2022-08-17T03:30:52.402Z,6.45
2022-08-17T03:33:19.841Z,5.93
2022-08-17T03:35:46.996Z,5.07
2022-08-17T03:38:15.184Z,6.28
2022-08-17T03:40:58.679Z,4.93
2022-08-17T03:43:28.909Z,4.93
2022-08-17T03:46:27.883Z,5.80
2022-08-17T03:49:14.886Z,7.38
2022-08-17T03:52:00.317Z,4.90
2022-08-17T03:54:45.829Z,6.25
2022-08-17T03:57:13.357Z,5.22
2022-08-17T03:59:40.966Z,4.65
2022-08-17T04:02:23.373Z,6.05
2022-08-17T04:04:51.132Z,4.85
2022-08-17T04:07:23.339Z,4.90
2022-08-17T04:09:50.118Z,9.35
2022-08-17T04:12:21.440Z,6.35
2022-08-17T04:14:53.587Z,5.03
2022-08-17T04:17:26.433Z,5.50
2022-08-17T04:19:53.790Z,5.03
2022-08-17T04:22:32.446Z,6.55
2022-08-17T04:25:20.024Z,5.25
2022-08-17T04:27:48.687Z,4.47
2022-08-17T04:30:15.877Z,4.15
2022-08-17T04:33:05.807Z,6.95
2022-08-17T04:35:45.670Z,6.32
2022-08-17T04:38:15.391Z,4.65
2022-08-17T04:41:01.045Z,6.53
2022-08-17T04:43:28.778Z,5.38
2022-08-17T04:46:01.367Z,7.22
2022-08-17T04:48:37.016Z,5.40
2022-08-17T04:51:08.246Z,3.75
2022-08-17T04:53:35.114Z,4.35
2022-08-17T04:56:02.283Z,5.43
2022-08-17T04:58:29.076Z,5.95
2022-08-17T05:00:56.322Z,4.55
2022-08-17T05:03:24.120Z,5.88
2022-08-17T05:05:51.145Z,4.15
2022-08-17T05:08:19.839Z,4.93
2022-08-17T05:10:48.171Z,3.90
2022-08-17T05:13:22.389Z,4.57
2022-08-17T05:15:54.867Z,6.13
2022-08-17T05:18:22.213Z,5.63
2022-08-17T05:20:52.491Z,5.88
2022-08-17T05:23:20.991Z,4.80
2022-08-17T05:25:50.426Z,5.32
2022-08-17T05:28:24.187Z,5.85
2022-08-17T05:30:56.768Z,6.65
2022-08-17T05:33:26.364Z,5.20
2022-08-17T05:35:58.905Z,4.00
2022-08-17T05:38:28.226Z,6.60
2022-08-17T05:40:55.874Z,4.88
2022-08-17T05:43:26.623Z,4.47
2022-08-17T05:46:20.269Z,6.97
2022-08-17T05:48:54.067Z,4.72
2022-08-17T05:51:23.512Z,4.40
2022-08-17T05:54:14.830Z,6.78
2022-08-17T05:56:50.485Z,4.63
2022-08-17T05:59:39.846Z,4.20
2022-08-17T06:02:36.236Z,4.00
2022-08-17T06:05:15.368Z,4.68
2022-08-17T06:08:08.903Z,4.72
2022-08-17T06:10:50.520Z,6.13
2022-08-17T06:14:01.178Z,3.70
2022-08-17T06:16:36.742Z,8.00
2022-08-17T06:19:13.676Z,5.40
2022-08-17T06:21:45.055Z,7.60
2022-08-17T06:24:34.229Z,4.22
2022-08-17T06:27:19.708Z,4.68
2022-08-17T06:29:50.034Z,5.60
2022-08-17T06:32:17.262Z,5.40
2022-08-17T06:34:45.937Z,7.95
2022-08-17T06:37:29.890Z,4.40
2022-08-17T06:40:18.155Z,4.43
2022-08-17T06:43:02.776Z,8.82
2022-08-17T06:45:49.143Z,3.85
2022-08-17T06:48:24.711Z,5.68
2022-08-17T06:51:00.220Z,5.32
2022-08-17T06:53:40.977Z,4.68
2022-08-17T06:56:13.687Z,4.35
2022-08-17T06:58:43.380Z,4.60
2022-08-17T07:01:26.742Z,7.85
2022-08-17T07:04:06.745Z,4.45
2022-08-17T07:07:31.549Z,5.30
2022-08-17T07:10:01.025Z,5.20
2022-08-17T07:12:39.390Z,5.57
2022-08-17T07:15:18.927Z,7.75
2022-08-17T07:17:48.415Z,6.75
2022-08-17T07:20:22.475Z,6.45
2022-08-17T07:22:55.307Z,9.02
2022-08-17T07:25:27.473Z,7.03
2022-08-17T07:28:00.056Z,7.68
2022-08-17T07:30:40.095Z,4.43
2022-08-17T07:33:34.425Z,6.53
2022-08-17T07:36:01.662Z,6.28
2022-08-17T07:38:31.706Z,7.97
2022-08-17T07:41:02.140Z,7.70
2022-08-17T07:43:32.280Z,6.07
2022-08-17T07:46:29.839Z,4.88
2022-08-17T07:49:19.384Z,11.70
2022-08-17T07:51:50.403Z,7.07
2022-08-17T07:54:19.477Z,6.55
2022-08-17T07:56:49.317Z,7.30
2022-08-17T07:59:24.892Z,8.68
2022-08-17T08:01:58.108Z,6.25
2022-08-17T08:04:58.989Z,8.80
2022-08-17T08:07:17.158Z,9.68
2022-08-17T08:09:46.377Z,9.40
2022-08-17T08:12:41.058Z,8.73
2022-08-17T08:15:09.257Z,9.82
2022-08-17T08:17:51.725Z,10.65
2022-08-17T08:20:51.407Z,11.43
2022-08-17T08:23:11.241Z,9.68
2022-08-17T08:26:02.754Z,10.88
2022-08-17T08:29:00.421Z,7.50
2022-08-17T08:31:30.269Z,11.40
2022-08-17T08:34:55.878Z,9.13
2022-08-17T08:37:17.143Z,10.55
2022-08-17T08:40:21.190Z,10.13
2022-08-17T08:43:03.899Z,10.88
2022-08-17T08:46:12.360Z,9.85
2022-08-17T08:48:58.428Z,10.57
2022-08-17T08:51:51.951Z,11.55
2022-08-17T08:54:27.279Z,11.00
2022-08-17T09:00:20.178Z,12.35
2022-08-17T09:03:14.995Z,9.82
2022-08-17T09:06:00.407Z,11.00
2022-08-17T09:08:53.307Z,9.98
2022-08-17T09:12:02.393Z,9.25
2022-08-17T09:14:56.696Z,10.35
2022-08-17T09:18:03.473Z,10.90
2022-08-17T09:20:50.179Z,13.35
2022-08-17T09:23:32.556Z,9.77
2022-08-17T09:26:11.552Z,10.55
2022-08-17T09:28:44.501Z,9.40
2022-08-17T09:31:24.049Z,12.07
2022-08-17T09:33:51.420Z,12.25
2022-08-17T09:36:28.081Z,10.10
2022-08-17T09:39:10.505Z,8.98
2022-08-17T09:41:48.966Z,11.68
2022-08-17T09:44:27.108Z,12.23
2022-08-17T09:47:00.700Z,13.10
2022-08-17T09:49:49.282Z,13.13
2022-08-17T09:52:23.774Z,15.00
2022-08-17T09:54:53.259Z,11.77
2022-08-17T09:57:30.213Z,10.43
2022-08-17T10:00:18.736Z,11.07
2022-08-17T10:02:54.485Z,11.93
2022-08-17T10:05:37.680Z,12.65
2022-08-17T10:08:08.566Z,12.63
2022-08-17T10:10:58.946Z,10.40
2022-08-17T10:13:35.675Z,13.35
2022-08-17T10:16:20.080Z,13.35
2022-08-17T10:19:10.969Z,11.18
2022-08-17T10:22:01.026Z,10.85
2022-08-17T10:25:22.236Z,10.43
2022-08-17T10:27:56.595Z,11.48
2022-08-17T10:30:26.969Z,9.27
2022-08-17T10:32:59.319Z,11.80
2022-08-17T10:35:45.943Z,10.05
2022-08-17T10:38:32.879Z,13.48
2022-08-17T10:41:18.091Z,12.00
2022-08-17T10:44:38.282Z,12.73
2022-08-17T10:47:16.114Z,11.80
2022-08-17T10:49:49.532Z,10.85
2022-08-17T10:52:28.249Z,11.75
2022-08-17T10:54:58.726Z,12.55
2022-08-17T10:57:31.803Z,12.75
2022-08-17T11:00:08.824Z,11.07
2022-08-17T11:02:45.729Z,14.35
2022-08-17T11:05:29.355Z,12.75
2022-08-17T11:08:20.349Z,11.88
2022-08-17T11:11:12.343Z,11.80
2022-08-17T11:14:04.517Z,10.10
2022-08-17T11:17:13.221Z,12.85
2022-08-17T11:20:20.890Z,10.77
2022-08-17T11:23:21.525Z,13.55
2022-08-17T11:25:55.362Z,10.95
2022-08-17T11:28:34.383Z,11.70
2022-08-17T11:31:39.254Z,12.68
2022-08-17T11:34:21.195Z,11.88
2022-08-17T11:37:34.019Z,15.88
2022-08-17T11:40:25.734Z,12.30
2022-08-17T11:43:31.018Z,11.73
2022-08-17T11:46:15.702Z,12.80
2022-08-17T11:49:00.857Z,13.23
2022-08-17T11:52:01.576Z,13.88
2022-08-17T11:54:33.180Z,12.90
2022-08-17T11:57:21.587Z,13.25
2022-08-17T11:59:48.306Z,12.60
2022-08-17T12:02:29.871Z,13.07
2022-08-17T12:05:16.859Z,13.07
2022-08-17T12:08:05.488Z,13.35
2022-08-17T12:10:35.772Z,14.38
2022-08-17T12:13:15.512Z,12.82
2022-08-17T12:15:49.640Z,13.80
2022-08-17T12:18:48.767Z,15.65
2022-08-17T12:21:24.310Z,12.80
2022-08-17T12:24:06.487Z,14.57
2022-08-17T12:26:35.764Z,13.48
2022-08-17T12:29:18.312Z,11.48
2022-08-17T12:32:02.188Z,15.52
2022-08-17T12:34:37.072Z,13.98
2022-08-17T12:37:12.612Z,13.63
2022-08-17T12:39:51.326Z,15.90
2022-08-17T12:42:29.315Z,13.35
2022-08-17T12:44:56.368Z,16.05
2022-08-17T12:47:23.537Z,14.50
2022-08-17T12:49:54.885Z,16.10
2022-08-17T12:52:24.569Z,16.40
2022-08-17T12:54:54.070Z,13.05
2022-08-17T12:57:33.613Z,15.20
2022-08-17T13:00:16.320Z,16.08
2022-08-17T13:02:53.330Z,16.85
2022-08-17T13:05:28.889Z,14.18
2022-08-17T13:07:59.699Z,16.08
2022-08-17T13:10:33.353Z,15.63
2022-08-17T13:13:06.019Z,13.98
2022-08-17T13:15:45.108Z,12.80
2022-08-17T13:18:33.874Z,15.90
2022-08-17T13:21:01.142Z,15.90
2022-08-17T13:23:32.416Z,12.63
2022-08-17T13:26:07.110Z,14.27
2022-08-17T13:28:36.701Z,18.33
2022-08-17T13:31:30.155Z,14.95
2022-08-17T13:34:41.141Z,14.18
2022-08-17T13:37:32.755Z,14.07
2022-08-17T13:40:05.099Z,12.45
2022-08-17T13:42:51.519Z,12.77
2022-08-17T13:45:35.874Z,11.18
2022-08-17T13:48:14.457Z,12.80
2022-08-17T13:50:47.153Z,12.10
2022-08-17T13:53:19.469Z,14.30
2022-08-17T13:55:52.687Z,11.75
2022-08-17T13:58:29.094Z,12.35
2022-08-17T14:00:56.339Z,12.73
2022-08-17T14:03:23.960Z,11.73
2022-08-17T14:05:52.828Z,13.57
2022-08-17T14:08:20.793Z,12.55
2022-08-17T14:10:58.286Z,11.43
2022-08-17T14:13:25.135Z,13.40
2022-08-17T14:15:54.854Z,13.30
2022-08-17T14:18:52.043Z,12.45
2022-08-17T14:21:10.602Z,11.48
2022-08-17T14:23:37.695Z,12.13
2022-08-17T14:26:05.546Z,14.43
2022-08-17T14:28:32.857Z,12.45
2022-08-17T14:31:03.283Z,11.63
2022-08-17T14:33:30.164Z,10.38
2022-08-17T14:35:57.674Z,13.15
2022-08-17T14:38:24.895Z,13.80
2022-08-17T14:40:52.209Z,15.77
2022-08-17T14:43:20.407Z,12.75
2022-08-17T14:45:47.241Z,12.48
2022-08-17T14:48:14.233Z,14.55
2022-08-17T14:50:43.057Z,12.77
2022-08-17T14:53:13.470Z,11.90
2022-08-17T14:55:40.469Z,13.70
2022-08-17T14:58:09.097Z,11.77
2022-08-17T15:00:39.405Z,15.73
2022-08-17T15:03:06.290Z,13.75
2022-08-17T15:05:36.516Z,12.95
2022-08-17T15:08:05.510Z,15.88
2022-08-17T15:10:33.485Z,14.18
2022-08-17T15:13:00.779Z,13.10
2022-08-17T15:15:28.477Z,14.05
2022-08-17T15:17:55.470Z,11.70
2022-08-17T15:20:25.088Z,13.25
2022-08-17T15:22:55.570Z,13.60
2022-08-17T15:25:23.828Z,12.10
2022-08-17T15:27:50.868Z,13.45
2022-08-17T15:30:18.134Z,15.65
2022-08-17T15:32:50.575Z,15.75
2022-08-17T15:35:28.359Z,16.20
2022-08-17T15:38:06.321Z,13.27
2022-08-17T15:40:43.534Z,16.08
2022-08-17T15:43:14.022Z,16.23
2022-08-17T15:45:40.777Z,14.18
2022-08-17T15:48:07.899Z,15.18
2022-08-17T15:50:35.396Z,12.88
2022-08-17T15:53:03.553Z,16.98
2022-08-17T15:55:32.166Z,13.57
2022-08-17T15:57:59.438Z,13.90
2022-08-17T16:00:28.427Z,13.65
2022-08-17T16:03:45.712Z,13.52
2022-08-17T16:05:42.949Z,15.77
2022-08-17T16:08:11.078Z,19.23
2022-08-17T16:10:38.481Z,15.07
2022-08-17T16:13:05.252Z,14.07
2022-08-17T16:15:43.974Z,14.93
2022-08-17T16:18:11.491Z,14.35
2022-08-17T16:20:38.735Z,20.65
2022-08-17T16:23:05.663Z,15.75
2022-08-17T16:25:52.344Z,28.25
2022-08-17T16:28:20.546Z,14.48
2022-08-17T16:30:47.318Z,15.80
2022-08-17T16:33:16.594Z,17.20
2022-08-17T16:35:43.382Z,15.98
2022-08-17T16:38:10.848Z,16.30
2022-08-17T16:40:37.957Z,13.60
2022-08-17T16:43:10.708Z,15.00
2022-08-17T16:45:40.500Z,10.70
2022-08-17T16:48:08.675Z,15.90
2022-08-17T16:50:36.438Z,10.55
2022-08-17T16:53:06.632Z,11.93
2022-08-17T16:55:35.658Z,16.50
2022-08-17T16:58:06.649Z,12.98
2022-08-17T17:00:33.841Z,14.98
2022-08-17T17:03:17.747Z,22.10
2022-08-17T17:06:28.233Z,13.85
2022-08-17T17:09:05.513Z,14.60
2022-08-17T17:11:43.563Z,12.15
2022-08-17T17:14:20.135Z,10.48
2022-08-17T17:17:03.777Z,12.52
2022-08-17T17:19:41.324Z,13.82
2022-08-17T17:22:21.523Z,12.18
2022-08-17T17:25:04.511Z,11.50
2022-08-17T17:28:01.890Z,13.45
2022-08-17T17:30:49.491Z,11.80
2022-08-17T17:33:24.588Z,11.35
2022-08-17T17:35:56.612Z,13.60
2022-08-17T17:38:45.626Z,11.55
2022-08-17T17:41:25.832Z,11.75
2022-08-17T17:44:01.906Z,12.40
2022-08-17T17:46:37.881Z,11.35
2022-08-17T17:49:06.041Z,12.05
2022-08-17T17:52:02.832Z,11.85
2022-08-17T17:54:29.351Z,10.90
2022-08-17T17:57:22.193Z,11.60
2022-08-17T18:00:13.668Z,11.43
2022-08-17T18:03:03.536Z,10.32
2022-08-17T18:06:12.588Z,10.43
2022-08-17T18:08:41.667Z,9.85
2022-08-17T18:11:24.586Z,9.18
2022-08-17T18:14:14.755Z,12.95
2022-08-17T18:16:43.349Z,11.13
2022-08-17T18:19:19.816Z,10.73
2022-08-17T18:21:56.080Z,13.23
2022-08-17T18:24:53.993Z,10.35
2022-08-17T18:27:34.624Z,16.48
2022-08-17T18:30:15.059Z,15.57
2022-08-17T18:32:44.434Z,15.27
2022-08-17T18:35:11.102Z,14.73
2022-08-17T18:37:45.363Z,12.38
2022-08-17T18:40:20.679Z,11.15
2022-08-17T18:42:59.470Z,11.90
2022-08-17T18:45:49.350Z,10.98
2022-08-17T18:48:27.978Z,12.82
2022-08-17T18:51:00.158Z,14.88
2022-08-17T18:53:39.041Z,12.20
2022-08-17T18:56:27.368Z,14.15
2022-08-17T18:58:56.550Z,11.70
2022-08-17T19:01:46.939Z,12.10
2022-08-17T19:04:34.129Z,10.88
2022-08-17T19:07:25.801Z,12.98
2022-08-17T19:10:21.678Z,11.00
2022-08-17T19:12:53.858Z,12.50
2022-08-17T19:15:44.839Z,10.82
2022-08-17T19:18:43.857Z,11.32
2022-08-17T19:21:25.623Z,10.05
2022-08-17T19:24:19.453Z,10.68
2022-08-17T19:26:58.082Z,11.02
2022-08-17T19:29:50.214Z,9.30
2022-08-17T19:32:21.970Z,16.30
2022-08-17T19:34:49.271Z,11.98
2022-08-17T19:37:53.639Z,9.23
2022-08-17T19:40:53.946Z,12.23
2022-08-17T19:43:30.357Z,12.48
2022-08-17T19:46:07.931Z,19.05
2022-08-17T19:48:35.585Z,10.15
2022-08-17T19:51:17.998Z,10.38
2022-08-17T19:54:15.824Z,9.00
2022-08-17T19:57:13.077Z,10.45
2022-08-17T19:59:49.389Z,12.35
2022-08-17T20:02:44.201Z,10.45
2022-08-17T20:05:26.147Z,10.95
2022-08-17T20:08:08.961Z,11.93
2022-08-17T20:10:41.637Z,9.25
2022-08-17T20:13:33.187Z,9.73
2022-08-17T20:16:01.626Z,10.73
2022-08-17T20:18:36.712Z,10.45
2022-08-17T20:21:29.036Z,12.30
2022-08-17T20:24:17.279Z,12.20
2022-08-17T20:26:58.746Z,10.88
2022-08-17T20:29:37.182Z,9.13
2022-08-17T20:32:18.809Z,10.18
2022-08-17T20:34:47.252Z,8.98
2022-08-17T20:37:14.439Z,9.90
2022-08-17T20:39:43.788Z,9.27
2022-08-17T20:42:22.762Z,10.45
2022-08-17T20:44:57.884Z,9.50
2022-08-17T20:48:15.126Z,12.27
2022-08-17T20:50:43.500Z,9.50
2022-08-17T20:53:13.497Z,10.13
2022-08-17T20:55:52.408Z,9.85
2022-08-17T20:58:23.071Z,9.30
2022-08-17T21:00:58.946Z,9.73
2022-08-17T21:03:28.675Z,9.70
2022-08-17T21:06:18.328Z,9.10
2022-08-17T21:08:46.203Z,10.57
2022-08-17T21:11:56.793Z,10.32
2022-08-17T21:15:04.492Z,9.73
2022-08-17T21:17:50.121Z,10.45
2022-08-17T21:20:32.355Z,14.00
2022-08-17T21:23:31.141Z,11.98
2022-08-17T21:26:17.278Z,12.38
2022-08-17T21:29:30.905Z,12.55
2022-08-17T21:32:00.601Z,11.40
2022-08-17T21:34:28.063Z,14.50
2022-08-17T21:36:56.701Z,14.65
2022-08-17T21:39:33.191Z,13.35
2022-08-17T21:42:00.610Z,14.05
2022-08-17T21:44:47.153Z,15.13
2022-08-17T21:47:26.547Z,15.75
2022-08-17T21:49:55.077Z,17.75
2022-08-17T21:52:26.511Z,15.25
2022-08-17T21:55:03.068Z,18.05
2022-08-17T21:57:31.871Z,17.30
2022-08-17T22:00:01.511Z,15.35
2022-08-17T22:02:35.122Z,16.77
2022-08-17T22:05:11.625Z,16.17
2022-08-17T22:07:43.459Z,16.40
2022-08-17T22:10:40.339Z,16.90
2022-08-17T22:13:16.772Z,16.00
2022-08-17T22:15:50.007Z,17.30
2022-08-17T22:18:26.809Z,18.65
2022-08-17T22:20:56.994Z,19.83
2022-08-17T22:23:49.472Z,17.95
2022-08-17T22:26:18.352Z,17.27
2022-08-17T22:28:56.479Z,18.27
2022-08-17T22:31:50.945Z,19.40
2022-08-17T22:34:17.740Z,15.20
2022-08-17T22:36:44.471Z,15.63
2022-08-17T22:39:11.546Z,15.32
2022-08-17T22:41:39.050Z,16.15
2022-08-17T22:44:27.093Z,15.38
2022-08-17T22:47:02.149Z,15.90
2022-08-17T22:49:31.506Z,15.32
2022-08-17T22:52:16.276Z,16.40
2022-08-17T22:55:09.403Z,15.93
2022-08-17T22:57:55.026Z,14.65
2022-08-17T23:00:51.545Z,13.85
2022-08-17T23:03:18.288Z,15.60
2022-08-17T23:06:06.691Z,12.70
2022-08-17T23:08:36.102Z,12.73
2022-08-17T23:11:02.931Z,14.38
2022-08-17T23:13:33.344Z,12.52
2022-08-17T23:16:00.114Z,12.30
2022-08-17T23:18:27.297Z,13.65
2022-08-17T23:20:54.416Z,13.57
2022-08-17T23:23:23.697Z,17.23
2022-08-17T23:25:50.699Z,12.60
2022-08-17T23:28:17.504Z,12.13
2022-08-17T23:30:46.430Z,12.48
2022-08-17T23:33:26.492Z,13.18
2022-08-17T23:35:54.055Z,14.98
2022-08-17T23:38:21.837Z,13.07
2022-08-17T23:40:48.984Z,14.23
2022-08-17T23:43:23.416Z,12.38
2022-08-17T23:45:57.410Z,12.98
2022-08-17T23:48:36.062Z,14.23
2022-08-17T23:51:18.971Z,14.00
2022-08-17T23:53:48.550Z,13.75
2022-08-17T23:56:17.029Z,14.88
2022-08-17T23:58:44.882Z,13.60
